Time;durP1;ratioP1;P1;durP2;ratioP2;P2;SDS_P1;SDS_P2;PMS_P1;PMS_P2;Temp;Humidity;BMP_temperature;BMP_pressure;BME280_temperature;BME280_humidity;BME280_pressure;Samples;Min_cycle;Max_cycle;Signal;HPM_P1;HPM_P2
2021/06/19 00:00:54;;;;;;;;;;;13.50;99.90;;;;;;5076425;28;19924;-85
2021/06/19 00:03:21;;;;;;;;;;;13.50;99.90;;;;;;5076361;28;20332;-85
2021/06/19 00:05:47;;;;;;;;;;;13.50;99.90;;;;;;5076244;28;19924;-85
2021/06/19 00:08:14;;;;;;;;;;;13.50;99.90;;;;;;5076423;28;19935;-85
2021/06/19 00:10:41;;;;;;;;;;;13.50;99.90;;;;;;5076244;28;19924;-85
2021/06/19 00:13:08;;;;;;;;;;;13.40;99.90;;;;;;5076161;28;19932;-85
2021/06/19 00:15:35;;;;;;;;;;;13.40;99.90;;;;;;5076056;28;19925;-85
2021/06/19 00:18:03;;;;;;;;;;;13.40;99.90;;;;;;5075973;28;19934;-85
2021/06/19 00:20:30;;;;;;;;;;;13.40;99.90;;;;;;5076207;28;20038;-85
2021/06/19 00:22:57;;;;;;;;;;;13.30;99.90;;;;;;5076080;28;19925;-85
2021/06/19 00:25:25;;;;;;;;;;;13.30;99.90;;;;;;5075799;28;19924;-85
2021/06/19 00:27:51;;;;;;;;;;;13.20;99.90;;;;;;5075864;28;20356;-85
2021/06/19 00:30:19;;;;;;;;;;;13.20;99.90;;;;;;5075836;28;19928;-85
2021/06/19 00:32:46;;;;;;;;;;;13.10;99.90;;;;;;5075861;28;19924;-85
2021/06/19 00:35:14;;;;;;;;;;;13.10;99.90;;;;;;5075693;28;19924;-85
2021/06/19 00:37:41;;;;;;;;;;;13.10;99.90;;;;;;5075858;28;19924;-85
2021/06/19 00:40:08;;;;;;;;;;;13.10;99.90;;;;;;5075617;28;20380;-85
2021/06/19 00:42:35;;;;;;;;;;;13.10;99.90;;;;;;5075601;28;19935;-85
2021/06/19 00:45:02;;;;;;;;;;;13.00;99.90;;;;;;5074607;28;19928;-85
2021/06/19 00:47:29;;;;;;;;;;;13.00;99.90;;;;;;5075660;28;20234;-85
2021/06/19 00:49:56;;;;;;;;;;;12.90;99.90;;;;;;5075546;28;19925;-85
2021/06/19 00:52:24;;;;;;;;;;;12.80;99.90;;;;;;5075560;28;19924;-85
2021/06/19 00:54:51;;;;;;;;;;;12.80;99.90;;;;;;5075377;28;20250;-85
2021/06/19 00:57:18;;;;;;;;;;;12.80;99.90;;;;;;5075326;28;19939;-85
2021/06/19 00:59:44;;;;;;;;;;;12.70;99.90;;;;;;5075288;28;19989;-85
2021/06/19 01:02:11;;;;;;;;;;;12.60;99.90;;;;;;5075561;28;19924;-85
2021/06/19 01:04:38;;;;;;;;;;;12.50;99.90;;;;;;5075578;28;19932;-85
2021/06/19 01:07:05;;;;;;;;;;;12.50;99.90;;;;;;5075073;28;20238;-85
2021/06/19 01:09:33;;;;;;;;;;;12.50;99.90;;;;;;5075404;28;20014;-85
2021/06/19 01:12:00;;;;;;;;;;;12.50;99.90;;;;;;5075145;28;19934;-85
2021/06/19 01:14:27;;;;;;;;;;;12.50;99.90;;;;;;5075116;28;19935;-85
2021/06/19 01:16:54;;;;;;;;;;;12.40;99.90;;;;;;5075046;28;19924;-85
2021/06/19 01:19:21;;;;;;;;;;;12.40;99.90;;;;;;5075315;28;19925;-85
2021/06/19 01:21:49;;;;;;;;;;;12.40;99.90;;;;;;5075148;28;19934;-86
2021/06/19 01:24:16;;;;;;;;;;;12.40;99.90;;;;;;5074998;28;19925;-86
2021/06/19 01:26:44;;;;;;;;;;;12.40;99.90;;;;;;5075072;28;20287;-86
2021/06/19 01:29:11;;;;;;;;;;;12.40;99.90;;;;;;5075024;28;19925;-85
2021/06/19 01:31:38;;;;;;;;;;;12.30;99.90;;;;;;5075016;28;19928;-85
2021/06/19 01:34:05;;;;;;;;;;;12.30;99.90;;;;;;5074979;28;20355;-85
2021/06/19 01:36:31;;;;;;;;;;;12.30;99.90;;;;;;5074959;28;19924;-85
2021/06/19 01:38:58;;;;;;;;;;;12.20;99.90;;;;;;5074984;28;19939;-86
2021/06/19 01:41:26;;;;;;;;;;;12.20;99.90;;;;;;5074975;28;19935;-86
2021/06/19 01:43:59;;;;;;;;;;;12.10;99.90;;;;;;5075129;28;19924;-86
2021/06/19 01:46:26;;;;;;;;;;;12.00;99.90;;;;;;5075017;28;19924;-85
2021/06/19 01:48:53;;;;;;;;;;;12.00;99.90;;;;;;5074930;28;20031;-85
2021/06/19 01:51:20;;;;;;;;;;;12.00;99.90;;;;;;5074833;28;19924;-86
2021/06/19 01:53:47;;;;;;;;;;;12.00;99.90;;;;;;5074768;28;19924;-85
2021/06/19 01:56:14;;;;;;;;;;;12.00;99.90;;;;;;5075696;28;20322;-85
2021/06/19 01:58:41;;;;;;;;;;;12.00;99.90;;;;;;5078991;28;19925;-86
2021/06/19 02:01:10;;;;;;;;;;;11.90;99.90;;;;;;5078887;28;20019;-85
2021/06/19 02:03:37;;;;;;;;;;;11.80;99.90;;;;;;5078759;28;19960;-86
2021/06/19 02:06:05;;;;;;;;;;;11.90;99.90;;;;;;5078253;28;20268;-86
2021/06/19 02:08:32;;;;;;;;;;;11.90;99.90;;;;;;5078426;28;19935;-86
2021/06/19 02:10:59;;;;;;;;;;;11.80;99.90;;;;;;5078471;28;19928;-86
2021/06/19 02:13:26;;;;;;;;;;;11.80;99.90;;;;;;5078459;28;19930;-86
2021/06/19 02:15:53;;;;;;;;;;;11.90;99.90;;;;;;5078446;28;20337;-86
2021/06/19 02:18:21;;;;;;;;;;;11.90;99.90;;;;;;5078410;28;19924;-86
2021/06/19 02:20:52;;;;;;;;;;;11.90;99.90;;;;;;5078323;28;19924;-86
2021/06/19 02:23:19;;;;;;;;;;;11.90;99.90;;;;;;5078290;28;19979;-85
2021/06/19 02:25:51;;;;;;;;;;;11.90;99.90;;;;;;5078137;28;19924;-86
2021/06/19 02:28:18;;;;;;;;;;;11.90;99.90;;;;;;5078149;28;19975;-86
2021/06/19 02:30:45;;;;;;;;;;;11.90;99.90;;;;;;5078278;28;19925;-86
2021/06/19 02:33:12;;;;;;;;;;;12.00;99.90;;;;;;5078215;28;19925;-86
2021/06/19 02:35:41;;;;;;;;;;;11.90;99.90;;;;;;5078009;28;19928;-86
2021/06/19 02:38:08;;;;;;;;;;;11.90;99.90;;;;;;5077922;28;19928;-86
2021/06/19 02:40:35;;;;;;;;;;;11.90;99.90;;;;;;5077896;28;20261;-86
2021/06/19 02:43:02;;;;;;;;;;;11.90;99.90;;;;;;5078059;28;19946;-86
2021/06/19 02:45:28;;;;;;;;;;;11.80;99.90;;;;;;5077828;28;19931;-86
2021/06/19 02:47:56;;;;;;;;;;;11.80;99.90;;;;;;5077801;28;19925;-86
2021/06/19 02:50:23;;;;;;;;;;;11.80;99.90;;;;;;5077755;28;19935;-86
2021/06/19 02:52:52;;;;;;;;;;;11.80;99.90;;;;;;5077805;28;19928;-86
2021/06/19 02:55:19;;;;;;;;;;;11.80;99.90;;;;;;5077780;28;19924;-86
2021/06/19 02:57:46;;;;;;;;;;;11.80;99.90;;;;;;5077628;28;20257;-86
2021/06/19 03:00:13;;;;;;;;;;;11.80;99.90;;;;;;5077627;28;19925;-86
2021/06/19 03:02:40;;;;;;;;;;;11.80;99.90;;;;;;5077533;28;19983;-85
2021/06/19 03:05:08;;;;;;;;;;;11.80;99.90;;;;;;5077338;28;19924;-86
2021/06/19 03:07:35;;;;;;;;;;;11.80;99.90;;;;;;5076981;28;19924;-86
2021/06/19 03:10:03;;;;;;;;;;;11.80;99.90;;;;;;5077083;28;19924;-86
2021/06/19 03:12:30;;;;;;;;;;;11.70;99.90;;;;;;5077501;28;19925;-86
2021/06/19 03:14:57;;;;;;;;;;;11.70;99.90;;;;;;5077339;28;19925;-86
2021/06/19 03:17:24;;;;;;;;;;;11.70;99.90;;;;;;5077249;28;19924;-87
2021/06/19 03:19:51;;;;;;;;;;;11.70;99.90;;;;;;5077192;28;19924;-86
2021/06/19 03:22:17;;;;;;;;;;;11.70;99.90;;;;;;5077360;28;19935;-86
2021/06/19 03:24:44;;;;;;;;;;;11.60;99.90;;;;;;5077660;28;19935;-86
2021/06/19 03:27:13;;;;;;;;;;;11.60;99.90;;;;;;5077120;28;19935;-86
2021/06/19 03:29:40;;;;;;;;;;;11.60;99.90;;;;;;5077038;28;19938;-86
2021/06/19 03:32:07;;;;;;;;;;;11.60;99.90;;;;;;5077076;28;19934;-86
2021/06/19 03:34:36;;;;;;;;;;;11.60;99.90;;;;;;5076951;28;19924;-86
2021/06/19 03:37:03;;;;;;;;;;;11.60;99.90;;;;;;5077189;28;20362;-86
2021/06/19 03:39:30;;;;;;;;;;;11.60;99.90;;;;;;5076801;28;19935;-86
2021/06/19 03:41:57;;;;;;;;;;;11.60;99.90;;;;;;5076891;28;19966;-86
2021/06/19 03:44:25;;;;;;;;;;;11.60;99.90;;;;;;5076787;28;19925;-86
2021/06/19 03:46:52;;;;;;;;;;;11.60;99.90;;;;;;5076595;28;19935;-86
2021/06/19 03:49:19;;;;;;;;;;;11.60;99.90;;;;;;5076838;28;19925;-86
2021/06/19 03:51:46;;;;;;;;;;;11.60;99.90;;;;;;5076862;28;19924;-86
2021/06/19 03:54:12;;;;;;;;;;;11.60;99.90;;;;;;5076607;28;20356;-85
2021/06/19 03:56:40;;;;;;;;;;;11.60;99.90;;;;;;5076501;28;19924;-86
2021/06/19 03:59:07;;;;;;;;;;;11.60;99.90;;;;;;5076439;28;19925;-86
2021/06/19 04:01:35;;;;;;;;;;;11.60;99.90;;;;;;5076388;28;19935;-86
2021/06/19 04:04:02;;;;;;;;;;;11.60;99.90;;;;;;5076182;28;20245;-86
2021/06/19 04:06:29;;;;;;;;;;;11.70;99.90;;;;;;5076115;28;19924;-86
2021/06/19 04:08:55;;;;;;;;;;;11.70;99.90;;;;;;5076214;28;19924;-86
2021/06/19 04:11:22;;;;;;;;;;;11.70;99.90;;;;;;5076242;28;19931;-86
2021/06/19 04:13:49;;;;;;;;;;;11.70;99.90;;;;;;5076133;28;19925;-85
2021/06/19 04:16:16;;;;;;;;;;;11.70;99.90;;;;;;5076425;28;19925;-86
2021/06/19 04:18:44;;;;;;;;;;;11.80;99.90;;;;;;5076306;28;20011;-86
2021/06/19 04:21:11;;;;;;;;;;;11.80;99.90;;;;;;5075917;28;19928;-86
2021/06/19 04:23:38;;;;;;;;;;;11.80;99.90;;;;;;5076237;28;19928;-86
2021/06/19 04:26:05;;;;;;;;;;;11.80;99.90;;;;;;5075834;28;20261;-86
2021/06/19 04:28:32;;;;;;;;;;;11.80;99.90;;;;;;5075855;28;19928;-86
2021/06/19 04:31:00;;;;;;;;;;;11.90;99.90;;;;;;5075763;28;19924;-86
2021/06/19 04:33:27;;;;;;;;;;;11.90;99.90;;;;;;5075822;28;19932;-86
2021/06/19 04:35:56;;;;;;;;;;;11.90;99.90;;;;;;5075838;28;19924;-86
2021/06/19 04:38:22;;;;;;;;;;;12.00;99.90;;;;;;5075654;28;20264;-86
2021/06/19 04:40:53;;;;;;;;;;;12.00;99.90;;;;;;5075625;28;19924;-86
2021/06/19 04:43:25;;;;;;;;;;;12.00;99.90;;;;;;5075658;28;19924;-85
2021/06/19 04:45:52;;;;;;;;;;;12.10;99.90;;;;;;5075514;28;19924;-86
2021/06/19 04:48:19;;;;;;;;;;;12.10;99.90;;;;;;5075653;28;19924;-86
2021/06/19 04:50:46;;;;;;;;;;;12.10;99.90;;;;;;5075549;28;19925;-86
2021/06/19 04:53:14;;;;;;;;;;;12.10;99.90;;;;;;5075419;28;20348;-86
2021/06/19 04:55:41;;;;;;;;;;;12.10;99.90;;;;;;5075509;28;19939;-86
2021/06/19 04:58:09;;;;;;;;;;;12.20;99.90;;;;;;5075574;28;19990;-86
2021/06/19 05:00:36;;;;;;;;;;;12.20;99.90;;;;;;5075548;28;19925;-86
2021/06/19 05:03:03;;;;;;;;;;;12.20;99.90;;;;;;5075435;28;19924;-86
2021/06/19 05:05:30;;;;;;;;;;;12.30;99.90;;;;;;5075155;28;19925;-86
2021/06/19 05:07:56;;;;;;;;;;;12.40;99.90;;;;;;5075341;28;19924;-86
2021/06/19 05:10:25;;;;;;;;;;;12.40;99.90;;;;;;5075261;28;19924;-86
2021/06/19 05:12:51;;;;;;;;;;;12.40;99.90;;;;;;5075179;28;19954;-86
2021/06/19 05:15:21;;;;;;;;;;;12.50;99.90;;;;;;5075366;28;19935;-86
2021/06/19 05:17:48;;;;;;;;;;;12.50;99.90;;;;;;5075172;28;20344;-86
2021/06/19 05:20:15;;;;;;;;;;;12.60;99.90;;;;;;5075241;28;19924;-86
2021/06/19 05:22:41;;;;;;;;;;;12.60;99.90;;;;;;5075039;28;19939;-86
2021/06/19 05:25:09;;;;;;;;;;;12.60;99.90;;;;;;5075008;28;19929;-86
2021/06/19 05:27:37;;;;;;;;;;;12.60;99.90;;;;;;5075075;28;20374;-86
2021/06/19 05:30:04;;;;;;;;;;;12.70;99.90;;;;;;5075057;28;20220;-86
2021/06/19 05:32:31;;;;;;;;;;;12.80;99.90;;;;;;5074535;28;20291;-86
2021/06/19 05:34:58;;;;;;;;;;;12.80;99.90;;;;;;5074945;28;20349;-86
2021/06/19 05:37:25;;;;;;;;;;;12.90;99.90;;;;;;5074972;28;19924;-86
2021/06/19 05:39:54;;;;;;;;;;;13.00;99.90;;;;;;5075177;28;19932;-86
2021/06/19 05:42:20;;;;;;;;;;;13.20;99.90;;;;;;5075060;28;19935;-86
2021/06/19 05:44:49;;;;;;;;;;;13.40;99.90;;;;;;5075040;28;19925;-85
2021/06/19 05:47:15;;;;;;;;;;;13.50;99.90;;;;;;5074891;28;19924;-85
2021/06/19 05:49:42;;;;;;;;;;;13.70;99.90;;;;;;5074881;28;19925;-86
2021/06/19 05:52:09;;;;;;;;;;;13.80;99.90;;;;;;5074751;28;19981;-85
2021/06/19 05:54:37;;;;;;;;;;;14.00;99.90;;;;;;5075002;28;19925;-85
2021/06/19 05:57:04;;;;;;;;;;;14.00;99.90;;;;;;5074926;28;19924;-85
2021/06/19 05:59:31;;;;;;;;;;;14.00;99.90;;;;;;5074849;28;19929;-85
2021/06/19 06:01:59;;;;;;;;;;;14.00;99.90;;;;;;5074731;28;20284;-85
2021/06/19 06:04:26;;;;;;;;;;;14.10;99.90;;;;;;5074691;28;19924;-85
2021/06/19 06:06:52;;;;;;;;;;;14.10;99.90;;;;;;5074401;28;19925;-85
2021/06/19 06:09:19;;;;;;;;;;;14.30;99.90;;;;;;5074871;28;19925;-85
2021/06/19 06:11:46;;;;;;;;;;;14.50;99.90;;;;;;5074858;28;19950;-85
2021/06/19 06:14:13;;;;;;;;;;;14.60;99.90;;;;;;5074679;28;19925;-84
2021/06/19 06:16:40;;;;;;;;;;;14.70;99.90;;;;;;5074562;28;19924;-85
2021/06/19 06:19:08;;;;;;;;;;;14.70;99.90;;;;;;5074592;28;19928;-85
2021/06/19 06:21:35;;;;;;;;;;;14.80;99.90;;;;;;5074507;28;19925;-84
2021/06/19 06:24:02;;;;;;;;;;;14.90;99.90;;;;;;5074553;28;19935;-84
2021/06/19 06:26:28;;;;;;;;;;;14.90;99.90;;;;;;5074601;28;19935;-84
2021/06/19 06:28:55;;;;;;;;;;;15.00;99.90;;;;;;5074542;28;20362;-84
2021/06/19 06:31:22;;;;;;;;;;;15.20;99.90;;;;;;5074449;28;19935;-84
2021/06/19 06:33:49;;;;;;;;;;;15.30;99.90;;;;;;5074356;28;20264;-84
2021/06/19 06:36:17;;;;;;;;;;;15.40;99.90;;;;;;5074579;28;19924;-84
2021/06/19 06:38:44;;;;;;;;;;;15.40;99.90;;;;;;5074665;28;19925;-84
2021/06/19 06:41:11;;;;;;;;;;;15.50;99.90;;;;;;5074545;28;19947;-84
2021/06/19 06:43:38;;;;;;;;;;;15.50;99.90;;;;;;5075630;28;19928;-84
2021/06/19 06:46:05;;;;;;;;;;;15.60;99.90;;;;;;5077848;28;19974;-84
2021/06/19 06:48:32;;;;;;;;;;;15.50;99.90;;;;;;5077863;28;19928;-84
2021/06/19 06:50:59;;;;;;;;;;;15.50;99.90;;;;;;5077899;28;19924;-83
2021/06/19 06:53:27;;;;;;;;;;;15.60;99.90;;;;;;5077989;28;19925;-83
2021/06/19 06:55:54;;;;;;;;;;;15.60;99.90;;;;;;5077622;28;19935;-84
2021/06/19 06:58:20;;;;;;;;;;;15.70;99.90;;;;;;5077747;28;19924;-84
2021/06/19 07:00:47;;;;;;;;;;;15.70;99.90;;;;;;5077763;28;19935;-84
2021/06/19 07:03:14;;;;;;;;;;;15.70;99.90;;;;;;5077601;28;20329;-83
2021/06/19 07:05:41;;;;;;;;;;;15.80;99.90;;;;;;5077184;28;19925;-83
2021/06/19 07:08:08;;;;;;;;;;;15.80;99.90;;;;;;5077731;28;19928;-83
2021/06/19 07:10:36;;;;;;;;;;;15.90;99.90;;;;;;5077492;28;19931;-83
2021/06/19 07:13:03;;;;;;;;;;;16.00;99.90;;;;;;5077461;28;20354;-84
2021/06/19 07:15:30;;;;;;;;;;;16.00;99.90;;;;;;5077365;28;19924;-82
2021/06/19 07:17:56;;;;;;;;;;;16.20;99.90;;;;;;5076882;28;19925;-81
2021/06/19 07:20:23;;;;;;;;;;;16.70;99.90;;;;;;5077526;28;19924;-81
2021/06/19 07:22:50;;;;;;;;;;;17.30;99.90;;;;;;5077195;28;19935;-81
2021/06/19 07:25:17;;;;;;;;;;;17.70;99.90;;;;;;5077435;28;19934;-81
2021/06/19 07:27:47;;;;;;;;;;;17.90;99.90;;;;;;5077073;28;20362;-80
2021/06/19 07:30:15;;;;;;;;;;;18.40;99.90;;;;;;5077744;28;19973;-80
2021/06/19 07:32:41;;;;;;;;;;;18.60;99.90;;;;;;5076982;28;19928;-80
2021/06/19 07:35:09;;;;;;;;;;;18.80;99.90;;;;;;5077245;28;19929;-80
2021/06/19 07:37:36;;;;;;;;;;;18.80;99.90;;;;;;5077051;28;20352;-80
2021/06/19 07:40:02;;;;;;;;;;;18.60;99.90;;;;;;5076850;28;19924;-81
2021/06/19 07:42:37;;;;;;;;;;;18.50;99.90;;;;;;5076873;28;19935;-80
2021/06/19 07:45:06;;;;;;;;;;;18.40;99.90;;;;;;5076753;28;19924;-80
2021/06/19 07:47:32;;;;;;;;;;;18.50;99.90;;;;;;5076650;28;19924;-80
2021/06/19 07:49:59;;;;;;;;;;;18.50;99.90;;;;;;5076124;28;19966;-80
2021/06/19 07:52:26;;;;;;;;;;;18.20;99.90;;;;;;5076842;28;19931;-80
2021/06/19 07:54:53;;;;;;;4.35;2.28;;;18.00;99.90;;;;;;5075318;28;20477;-81
2021/06/19 07:57:20;;;;;;;4.03;2.15;;;17.80;99.90;;;;;;5076407;28;20040;-81
2021/06/19 07:59:47;;;;;;;;;;;17.60;99.90;;;;;;5076413;28;20054;-81
2021/06/19 08:02:17;;;;;;;2.97;1.58;;;17.40;99.90;;;;;;5076081;28;20048;-81
2021/06/19 08:04:44;;;;;;;3.67;1.88;;;17.20;99.90;;;;;;5076226;28;20109;-81
2021/06/19 08:07:11;;;;;;;3.85;2.00;;;17.00;99.90;;;;;;5075754;28;20057;-81
2021/06/19 08:09:38;;;;;;;5.00;1.88;;;17.60;99.90;;;;;;5076070;28;20048;-81
2021/06/19 08:12:07;;;;;;;2.92;1.98;;;18.40;99.90;;;;;;5075733;28;20048;-81
2021/06/19 08:14:34;;;;;;;3.70;1.83;;;18.60;99.90;;;;;;5075737;28;20049;-81
2021/06/19 08:17:08;;;;;;;;;;;18.50;99.90;;;;;;5076096;28;20446;-81
2021/06/19 08:19:36;;;;;;;3.83;1.95;;;18.30;99.90;;;;;;5074650;28;20839;-81
2021/06/19 08:22:03;;;;;;;6.95;2.10;;;18.00;99.90;;;;;;5075678;28;20392;-81
2021/06/19 08:24:31;;;;;;;2.90;1.80;;;18.10;99.90;;;;;;5075573;28;20052;-81
2021/06/19 08:26:58;;;;;;;4.07;2.58;;;18.80;99.90;;;;;;5075457;28;20052;-81
2021/06/19 08:29:25;;;;;;;3.15;1.65;;;20.00;99.90;;;;;;5075661;28;20049;-81
2021/06/19 08:31:52;;;;;;;5.22;1.77;;;20.40;99.90;;;;;;5069565;28;20045;-82
2021/06/19 08:34:19;;;;;;;2.80;1.50;;;20.60;99.90;;;;;;5055516;28;20049;-82
2021/06/19 08:36:48;;;;;;;3.67;1.63;;;20.80;99.90;;;;;;5055475;28;20049;-82
2021/06/19 08:39:15;;;;;;;4.28;1.83;;;21.30;99.90;;;;;;5055528;28;20055;-82
2021/06/19 08:41:47;;;;;;;2.97;1.52;;;22.50;98.30;;;;;;5055574;28;20051;-82
2021/06/19 08:44:20;;;;;;;4.25;1.83;;;23.20;93.30;;;;;;5055448;28;20404;-81
2021/06/19 08:46:47;;;;;;;;;;;22.80;89.20;;;;;;5055605;28;20416;-84
2021/06/19 08:49:14;;;;;;;;;;;22.50;93.00;;;;;;5055536;28;20259;-81
2021/06/19 08:51:40;;;;;;;;;;;22.20;94.60;;;;;;5055606;28;20260;-81
2021/06/19 08:54:09;;;;;;;;;;;21.50;96.70;;;;;;5055596;28;19921;-81
2021/06/19 08:56:36;;;;;;;;;;;21.00;99.90;;;;;;5055588;28;20362;-82
2021/06/19 08:59:02;;;;;;;;;;;20.70;99.60;;;;;;5055398;28;20006;-81
2021/06/19 09:01:29;;;;;;;;;;;20.40;99.90;;;;;;5055556;28;19932;-84
2021/06/19 09:03:56;;;;;;;;;;;20.10;99.90;;;;;;5055551;28;19921;-80
2021/06/19 09:06:24;;;;;;;;;;;19.90;99.90;;;;;;5054347;28;19924;-83
2021/06/19 09:09:04;;;;;;;;;;;19.60;99.90;;;;;;5055322;28;20336;-84
2021/06/19 09:11:33;;;;;;;;;;;19.30;99.90;;;;;;5055525;28;19964;-84
2021/06/19 09:14:00;;;;;;;;;;;18.90;99.90;;;;;;5055323;28;19921;-84
2021/06/19 09:16:27;;;;;;;;;;;18.80;99.90;;;;;;5055396;28;19932;-81
2021/06/19 09:18:54;;;;;;;;;;;18.80;99.90;;;;;;5055247;28;19931;-82
2021/06/19 09:21:27;;;;;;;;;;;18.60;99.90;;;;;;5055316;28;20400;-82
2021/06/19 09:23:53;;;;;;;;;;;18.70;99.90;;;;;;5057707;28;19920;-82
2021/06/19 09:26:20;;;;;;;;;;;18.70;99.90;;;;;;5064453;28;19921;-82
2021/06/19 09:29:11;;;;;;;;;;;18.70;99.90;;;;;;5061881;28;20271;-83
2021/06/19 09:31:39;;;;;;;;;;;18.70;99.90;;;;;;5065695;28;19924;-83
2021/06/19 09:34:07;;;;;;;;;;;18.80;99.90;;;;;;5064945;28;20398;-83
2021/06/19 09:36:40;;;;;;;;;;;18.80;99.90;;;;;;5065058;28;19921;-83
2021/06/19 09:39:07;;;;;;;;;;;18.80;99.90;;;;;;5064061;28;19921;-83
2021/06/19 09:41:35;;;;;;;;;;;18.70;99.90;;;;;;5064350;28;20249;-83
2021/06/19 09:44:02;;;;;;;;;;;18.80;99.90;;;;;;5065518;28;19920;-83
2021/06/19 09:46:30;;;;;;;;;;;18.80;99.90;;;;;;5064103;28;20292;-83
2021/06/19 09:48:57;;;;;;;;;;;18.80;99.90;;;;;;5063947;28;19920;-83
2021/06/19 09:51:24;;;;;;;;;;;18.90;99.90;;;;;;5054347;28;20003;-83
2021/06/19 09:53:51;;;;;;;;;;;18.90;99.90;;;;;;5054423;28;19921;-83
2021/06/19 09:56:19;;;;;;;;;;;18.80;99.90;;;;;;5054335;28;20351;-83
2021/06/19 09:58:46;;;;;;;;;;;18.90;99.90;;;;;;5054356;28;19920;-82
2021/06/19 10:01:18;;;;;;;;;;;18.80;99.90;;;;;;5054623;28;19921;-83
2021/06/19 10:03:57;;;;;;;;;;;18.70;99.90;;;;;;5054241;28;19920;-83
2021/06/19 10:06:24;;;;;;;;;;;18.70;99.90;;;;;;5054552;28;19927;-82
2021/06/19 10:08:51;;;;;;;;;;;18.60;99.90;;;;;;5054718;28;20256;-83
2021/06/19 10:11:19;;;;;;;;;;;18.50;99.90;;;;;;5054584;28;19924;-83
2021/06/19 10:13:45;;;;;;;;;;;18.40;99.90;;;;;;5054700;28;19931;-82
2021/06/19 10:16:12;;;;;;;;;;;18.30;99.90;;;;;;5054734;28;19931;-84
2021/06/19 10:18:39;;;;;;;;;;;18.30;99.90;;;;;;5056769;28;20364;-83
2021/06/19 10:21:08;;;;;;;;;;;18.40;99.90;;;;;;5058278;28;19921;-83
2021/06/19 10:23:35;;;;;;;;;;;18.60;99.90;;;;;;5058339;28;19921;-82
2021/06/19 10:26:02;;;;;;;;;;;18.80;99.90;;;;;;5058300;28;19920;-83
2021/06/19 10:28:29;;;;;;;;;;;18.90;99.90;;;;;;5058391;28;19921;-83
2021/06/19 10:30:55;;;;;;;;;;;19.10;99.90;;;;;;5058273;28;20337;-83
2021/06/19 10:33:25;;;;;;;;;;;19.10;99.90;;;;;;5058297;28;19921;-83
2021/06/19 10:35:52;;;;;;;;;;;19.20;99.90;;;;;;5058050;28;19940;-83
2021/06/19 10:38:21;;;;;;;;;;;19.30;99.90;;;;;;5058138;28;19921;-83
2021/06/19 10:40:51;;;;;;;;;;;19.30;99.90;;;;;;5058202;28;19920;-83
2021/06/19 10:43:18;;;;;;;;;;;19.40;99.90;;;;;;5057947;28;20261;-83
2021/06/19 10:45:45;;;;;;;;;;;19.30;99.90;;;;;;5057890;28;20400;-82
2021/06/19 10:48:13;;;;;;;;;;;19.30;99.90;;;;;;5057702;28;19921;-83
2021/06/19 10:50:40;;;;;;;;;;;19.30;99.90;;;;;;5057772;28;19921;-82
2021/06/19 10:53:07;;;;;;;;;;;19.30;99.90;;;;;;5057758;28;20003;-83
2021/06/19 10:55:36;;;;;;;;;;;19.20;99.90;;;;;;5057724;28;19946;-83
2021/06/19 10:58:18;;;;;;;;;;;19.20;99.90;;;;;;5057876;28;19924;-83
2021/06/19 11:00:45;;;;;;;;;;;19.20;99.90;;;;;;5055545;28;19921;-83
2021/06/19 11:03:12;;;;;;;;;;;19.30;99.90;;;;;;5057664;28;20363;-84
2021/06/19 11:05:52;;;;;;;;;;;19.30;99.90;;;;;;5057413;28;19921;-83
2021/06/19 11:08:19;;;;;;;;;;;19.30;99.90;;;;;;5057656;28;20265;-84
2021/06/19 11:11:06;;;;;;;;;;;19.20;99.90;;;;;;5057195;28;19931;-83
2021/06/19 11:13:47;;;;;;;;;;;19.10;99.90;;;;;;5057101;28;19925;-83
2021/06/19 11:16:51;;;;;;;;;;;19.00;99.90;;;;;;5057127;28;19956;-83
2021/06/19 11:19:46;;;;;;;;;;;19.10;99.90;;;;;;5057502;28;19921;-83
2021/06/19 11:22:32;;;;;;;;;;;19.20;99.90;;;;;;5057154;28;20444;-83
2021/06/19 11:25:19;;;;;;;;;;;19.40;99.90;;;;;;5057193;28;20363;-82
2021/06/19 11:27:49;;;;;;;;;;;19.40;99.90;;;;;;5057185;28;19968;-83
2021/06/19 11:30:31;;;;;;;;;;;19.50;99.90;;;;;;5056277;28;19920;-83
2021/06/19 11:33:13;;;;;;;;;;;19.50;99.90;;;;;;5056886;28;20011;-82
2021/06/19 11:35:41;;;;;;;;;;;19.50;99.90;;;;;;5056679;28;19931;-82
2021/06/19 11:38:08;;;;;;;;;;;19.40;99.90;;;;;;5057135;28;19932;-82
2021/06/19 11:40:36;;;;;;;;;;;19.40;99.90;;;;;;5056970;28;19934;-83
2021/06/19 11:43:03;;;;;;;;;;;19.40;99.90;;;;;;5057186;28;19931;-82
2021/06/19 11:45:30;;;;;;;;;;;19.40;99.90;;;;;;5058526;28;20263;-82
2021/06/19 11:48:03;;;;;;;;;;;19.40;99.90;;;;;;5076238;28;19943;-82
2021/06/19 11:50:30;;;;;;;;;;;19.40;99.90;;;;;;5069049;28;20318;-82
2021/06/19 11:52:58;;;;;;;;;;;19.40;99.90;;;;;;5061818;28;19924;-81
2021/06/19 11:55:25;;;;;;;;;;;19.30;99.90;;;;;;5073819;28;19950;-82
2021/06/19 11:57:57;;;;;;;;;;;19.40;99.90;;;;;;5076175;28;19960;-82
2021/06/19 12:00:27;;;;;;;;;;;19.40;99.90;;;;;;5076804;28;19943;-82
2021/06/19 12:02:54;;;;;;;;;;;19.50;99.90;;;;;;5082144;28;19921;-82
2021/06/19 12:05:20;;;;;;;;;;;19.40;99.90;;;;;;5078024;28;19920;-81
2021/06/19 12:07:47;;;;;;;;;;;19.30;99.90;;;;;;5076358;28;19921;-81
2021/06/19 12:10:25;;;;;;;;;;;19.20;99.90;;;;;;5076486;28;19920;-81
2021/06/19 12:12:56;;;;;;;;;;;19.20;99.90;;;;;;5076249;28;19924;-82
2021/06/19 12:15:23;;;;;;;;;;;19.10;99.90;;;;;;5077590;28;19936;-86
2021/06/19 12:17:50;;;;;;;;;;;19.10;99.90;;;;;;5083734;28;19979;-84
2021/06/19 12:20:19;;;;;;;;;;;19.10;99.90;;;;;;5076200;28;19920;-85
2021/06/19 12:22:46;;;;;;;;;;;19.10;99.90;;;;;;5076029;28;19920;-82
2021/06/19 12:25:13;;;;;;;;;;;19.20;99.90;;;;;;5076053;28;19921;-81
2021/06/19 12:27:41;;;;;;;;;;;19.20;99.90;;;;;;5075764;28;19928;-82
2021/06/19 12:30:09;;;;;;;;;;;19.30;99.90;;;;;;5075867;28;19930;-81
2021/06/19 12:32:38;;;;;;;;;;;19.40;99.90;;;;;;5075972;28;19921;-81
2021/06/19 12:35:06;;;;;;;;;;;19.40;99.90;;;;;;5075745;28;19932;-80
2021/06/19 12:37:33;;;;;;;;;;;19.50;99.90;;;;;;5075648;28;19920;-81
2021/06/19 12:40:00;;;;;;;;;;;19.50;99.90;;;;;;5075631;28;20331;-82
2021/06/19 12:42:38;;;;;;;;;;;19.60;99.90;;;;;;5075697;28;20357;-85
2021/06/19 12:45:08;;;;;;;;;;;19.60;99.90;;;;;;5075561;28;20358;-82
2021/06/19 12:47:35;;;;;;;;;;;19.70;99.90;;;;;;5075477;28;20371;-83
2021/06/19 12:50:02;;;;;;;;;;;19.80;98.80;;;;;;5075634;28;19920;-82
2021/06/19 12:52:29;;;;;;;;;;;19.70;97.60;;;;;;5075558;28;19921;-83
2021/06/19 12:55:09;;;;;;;;;;;19.70;99.90;;;;;;5071320;28;19924;-82
2021/06/19 12:57:36;;;;;;;;;;;19.80;99.90;;;;;;5055571;28;19932;-82
2021/06/19 13:00:03;;;;;;;;;;;19.90;99.90;;;;;;5055828;28;20256;-83
2021/06/19 13:02:31;;;;;;;;;;;20.00;99.20;;;;;;5055636;28;19920;-82
2021/06/19 13:04:58;;;;;;;;;;;20.10;99.90;;;;;;5055351;28;19920;-82
2021/06/19 13:07:29;;;;;;;;;;;20.10;99.90;;;;;;5055220;28;19935;-82
2021/06/19 13:09:57;;;;;;;;;;;20.10;99.40;;;;;;5054138;28;21385;-83
2021/06/19 13:12:24;;;;;;;;;;;20.10;99.40;;;;;;5055314;28;19924;-82
2021/06/19 13:15:09;;;;;;;;;;;20.10;99.20;;;;;;5055387;28;19924;-81
2021/06/19 13:17:44;;;;;;;;;;;20.10;99.70;;;;;;5055190;28;19938;-83
2021/06/19 13:20:26;;;;;;;;;;;20.10;98.20;;;;;;5055171;28;19932;-83
2021/06/19 13:23:03;;;;;;;;;;;20.10;97.90;;;;;;5053657;28;19925;-82
2021/06/19 13:25:44;;;;;;;;;;;19.90;95.80;;;;;;5055168;28;20019;-83
2021/06/19 13:28:11;;;;;;;;;;;19.90;98.60;;;;;;5054888;28;20329;-82
2021/06/19 13:30:38;;;;;;;;;;;19.90;94.60;;;;;;5055074;28;19928;-84
2021/06/19 13:33:06;;;;;;;;;;;19.90;98.10;;;;;;5055327;28;19924;-84
2021/06/19 13:35:45;;;;;;;;;;;20.00;98.50;;;;;;5055102;28;19925;-83
2021/06/19 13:38:12;;;;;;;;;;;20.10;99.00;;;;;;5074548;28;19929;-82
2021/06/19 13:40:39;;;;;;;;;;;20.10;97.10;;;;;;5074942;28;19935;-83
2021/06/19 13:43:06;;;;;;;;;;;20.00;94.80;;;;;;5075233;28;19924;-83
2021/06/19 13:45:33;;;;;;;;;;;19.90;97.10;;;;;;5075144;28;19931;-82
2021/06/19 13:48:01;;;;;;;;;;;19.90;96.70;;;;;;5076013;28;20364;-86
2021/06/19 13:50:30;;;;;;;;;;;19.90;96.00;;;;;;5060706;28;20016;-84
2021/06/19 13:52:57;;;;;;;;;;;20.00;95.00;;;;;;5063668;28;19930;-84
2021/06/19 13:55:27;;;;;;;;;;;20.00;96.80;;;;;;5078247;28;20367;-84
2021/06/19 13:57:54;;;;;;;;;;;20.00;96.70;;;;;;5078991;28;19936;-84
2021/06/19 14:00:21;;;;;;;;;;;20.00;96.20;;;;;;5078919;28;19924;-85
2021/06/19 14:02:48;;;;;;;;;;;19.90;96.00;;;;;;5078821;28;19935;-84
2021/06/19 14:05:15;;;;;;;;;;;19.80;97.30;;;;;;5078501;28;20264;-84
2021/06/19 14:07:43;;;;;;;;;;;19.70;98.20;;;;;;5078939;28;19930;-85
2021/06/19 14:10:10;;;;;;;;;;;19.70;97.60;;;;;;5079585;28;19924;-85
2021/06/19 14:12:37;;;;;;;;;;;19.60;98.20;;;;;;5078736;28;19939;-85
2021/06/19 14:15:04;;;;;;;;;;;19.50;98.70;;;;;;5079178;28;19925;-84
2021/06/19 14:17:31;;;;;;;;;;;19.50;99.20;;;;;;5058667;28;19936;-84